createdAt,value
2022-12-28T00:01:37.328Z,99772.29
2022-12-28T00:06:39.244Z,99768.55
2022-12-28T00:11:43.767Z,99765.02
2022-12-28T00:16:47.664Z,99763.60
2022-12-28T00:21:49.591Z,99762.55
2022-12-28T00:26:52.084Z,99759.86
2022-12-28T00:31:54.144Z,99759.41
2022-12-28T00:37:12.193Z,99756.55
2022-12-28T00:42:15.193Z,99757.95
2022-12-28T00:47:17.225Z,99763.05
2022-12-28T00:52:19.119Z,99768.92
2022-12-28T00:57:21.031Z,99767.77
2022-12-28T01:06:13.908Z,99772.08
2022-12-28T01:11:27.230Z,99768.58
2022-12-28T01:16:34.848Z,99771.41
2022-12-28T01:21:37.175Z,99771.23
2022-12-28T01:26:39.083Z,99769.58
2022-12-28T01:31:41.115Z,99767.58
2022-12-28T01:36:43.105Z,99767.50
2022-12-28T01:41:45.013Z,99763.18
2022-12-28T01:46:50.896Z,99756.87
2022-12-28T01:51:59.014Z,99754.14
2022-12-28T01:57:01.228Z,99742.27
2022-12-28T02:02:04.309Z,99743.20
2022-12-28T02:07:06.746Z,99735.88
2022-12-28T02:12:12.636Z,99737.35
2022-12-28T02:17:14.765Z,99724.40
2022-12-28T02:22:29.309Z,99703.88
2022-12-28T02:28:05.452Z,99699.66
2022-12-28T02:33:17.174Z,99701.58
2022-12-28T02:38:34.603Z,99694.69
2022-12-28T02:43:36.731Z,99689.48
2022-12-28T02:49:00.466Z,99685.85
2022-12-28T02:54:58.236Z,99680.17
2022-12-28T03:00:19.488Z,99677.40
2022-12-28T03:06:19.138Z,99676.42
2022-12-28T03:11:32.690Z,99667.83
2022-12-28T03:17:00.271Z,99674.27
2022-12-28T03:22:22.507Z,99677.48
2022-12-28T03:27:45.222Z,99673.52
2022-12-28T03:32:50.737Z,99659.06
2022-12-28T03:38:00.382Z,99658.36
2022-12-28T03:43:32.722Z,99647.21
2022-12-28T03:48:37.509Z,99638.27
2022-12-28T03:53:42.669Z,99632.34
2022-12-28T03:58:47.525Z,99620.19
2022-12-28T04:03:50.587Z,99614.91
2022-12-28T04:08:52.574Z,99609.08
2022-12-28T04:13:55.906Z,99604.44
2022-12-28T04:18:58.248Z,99602.07
2022-12-28T04:24:00.279Z,99599.74
2022-12-28T04:29:02.712Z,99600.31
2022-12-28T04:34:20.759Z,99588.48
2022-12-28T04:39:55.791Z,99587.32
2022-12-28T04:44:59.080Z,99579.86
2022-12-28T04:50:00.915Z,99571.33
2022-12-28T04:55:02.781Z,99570.14
2022-12-28T05:00:05.564Z,99572.83
2022-12-28T05:05:08.002Z,99563.66
2022-12-28T05:10:10.065Z,99556.91
2022-12-28T05:15:12.017Z,99554.84
2022-12-28T05:20:14.320Z,99551.38
2022-12-28T05:25:16.309Z,99550.48
2022-12-28T05:30:18.434Z,99541.89
2022-12-28T05:35:20.476Z,99540.58
2022-12-28T05:40:22.260Z,99542.48
2022-12-28T05:45:24.193Z,99538.39
2022-12-28T05:50:25.978Z,99529.39
2022-12-28T05:55:27.795Z,99522.84
2022-12-28T06:00:45.828Z,99519.59
2022-12-28T06:05:47.703Z,99519.39
2022-12-28T06:10:49.661Z,99513.20
2022-12-28T06:15:51.497Z,99508.59
2022-12-28T06:20:57.007Z,99500.53
2022-12-28T06:26:00.510Z,99500.77
2022-12-28T06:31:05.224Z,99498.17
2022-12-28T06:36:22.350Z,99493.87
2022-12-28T06:41:25.098Z,99488.88
2022-12-28T06:46:29.640Z,99483.70
2022-12-28T06:51:36.315Z,99487.91
2022-12-28T06:56:39.417Z,99494.31
2022-12-28T07:01:44.613Z,99494.80
2022-12-28T07:06:46.857Z,99488.76
2022-12-28T07:11:50.571Z,99494.00
2022-12-28T07:16:52.357Z,99487.11
2022-12-28T07:21:54.156Z,99475.61
2022-12-28T07:26:56.212Z,99479.77
2022-12-28T07:31:58.062Z,99483.25
2022-12-28T07:36:59.950Z,99481.08
2022-12-28T07:42:06.531Z,99482.18
2022-12-28T07:47:08.480Z,99478.91
2022-12-28T07:52:10.408Z,99471.60
2022-12-28T07:57:12.328Z,99471.55
2022-12-28T08:02:14.361Z,99471.46
2022-12-28T08:07:16.339Z,99470.52
2022-12-28T08:12:18.265Z,99464.77
2022-12-28T08:17:21.381Z,99467.98
2022-12-28T08:22:23.651Z,99471.90
2022-12-28T08:27:26.034Z,99468.98
2022-12-28T08:32:28.062Z,99456.81
2022-12-28T08:37:29.921Z,99455.20
2022-12-28T08:42:31.889Z,99454.13
2022-12-28T08:47:33.806Z,99454.23
2022-12-28T08:52:35.744Z,99457.59
2022-12-28T08:57:37.801Z,99460.01
2022-12-28T09:02:39.903Z,99470.88
2022-12-28T09:07:41.981Z,99468.77
2022-12-28T09:12:44.257Z,99459.45
2022-12-28T09:17:46.056Z,99461.73
2022-12-28T09:22:49.098Z,99453.99
2022-12-28T09:27:55.996Z,99454.04
2022-12-28T09:33:20.452Z,99449.27
2022-12-28T09:38:22.611Z,99450.27
2022-12-28T09:43:26.350Z,99446.95
2022-12-28T09:48:30.107Z,99445.19
2022-12-28T09:53:36.399Z,99445.81
2022-12-28T09:58:46.413Z,99437.25
2022-12-28T10:03:50.468Z,99431.73
2022-12-28T10:08:58.901Z,99423.73
2022-12-28T10:14:14.300Z,99416.59
2022-12-28T10:19:19.408Z,99402.00
2022-12-28T10:24:31.851Z,99379.54
2022-12-28T10:29:34.621Z,99357.67
2022-12-28T10:34:37.262Z,99356.12
2022-12-28T10:39:39.435Z,99344.78
2022-12-28T10:44:41.803Z,99331.16
2022-12-28T10:50:10.500Z,99328.08
2022-12-28T10:55:33.618Z,99329.24
2022-12-28T11:00:35.603Z,99322.30
2022-12-28T11:05:37.649Z,99305.58
2022-12-28T11:10:40.371Z,99290.23
2022-12-28T11:15:44.414Z,99280.88
2022-12-28T11:20:49.593Z,99264.08
2022-12-28T11:25:51.800Z,99257.02
2022-12-28T11:30:54.338Z,99246.06
2022-12-28T11:35:59.755Z,99247.44
2022-12-28T11:41:01.975Z,99247.21
2022-12-28T11:46:05.436Z,99240.90
2022-12-28T11:51:28.528Z,99235.11
2022-12-28T11:56:46.184Z,99230.37
2022-12-28T12:01:50.028Z,99223.58
2022-12-28T12:06:52.009Z,99222.79
2022-12-28T12:12:21.125Z,99215.73
2022-12-28T12:17:44.980Z,99202.89
2022-12-28T12:22:56.747Z,99198.44
2022-12-28T12:28:06.361Z,99200.46
2022-12-28T12:33:16.244Z,99195.36
2022-12-28T12:38:29.972Z,99191.94
2022-12-28T12:43:36.053Z,99183.91
2022-12-28T12:49:00.731Z,99169.77
2022-12-28T12:54:19.477Z,99149.09
2022-12-28T12:59:45.367Z,99146.45
2022-12-28T13:04:47.301Z,99133.63
2022-12-28T13:09:52.164Z,99122.84
2022-12-28T13:15:07.527Z,99116.19
2022-12-28T13:20:19.963Z,99110.85
2022-12-28T13:25:30.578Z,99109.69
2022-12-28T13:30:32.434Z,99109.39
2022-12-28T13:35:34.389Z,99108.77
2022-12-28T13:40:39.382Z,99115.63
2022-12-28T13:45:44.939Z,99117.52
2022-12-28T13:50:49.959Z,99116.81
2022-12-28T13:56:04.582Z,99111.80
2022-12-28T14:01:14.265Z,99121.74
2022-12-28T14:06:17.570Z,99115.73
2022-12-28T14:11:20.637Z,99103.58
2022-12-28T14:16:23.116Z,99097.52
2022-12-28T14:21:33.133Z,99100.54
2022-12-28T14:26:38.238Z,99107.90
2022-12-28T14:31:40.575Z,99098.02
2022-12-28T14:36:47.639Z,99103.73
2022-12-28T14:41:49.833Z,99113.92
2022-12-28T14:46:54.378Z,99098.63
2022-12-28T14:51:56.271Z,99086.99
2022-12-28T14:57:19.337Z,99084.80
2022-12-28T15:02:39.492Z,99070.66
2022-12-28T15:07:41.545Z,99066.66
2022-12-28T15:12:43.499Z,99065.83
2022-12-28T15:17:46.533Z,99060.73
2022-12-28T15:22:49.249Z,99057.42
2022-12-28T15:27:52.059Z,99054.13
2022-12-28T15:32:54.033Z,99051.94
2022-12-28T15:37:56.662Z,99045.99
2022-12-28T15:42:58.625Z,99046.88
2022-12-28T15:48:00.558Z,99045.80
2022-12-28T15:53:02.373Z,99036.16
2022-12-28T15:58:04.415Z,99032.88
2022-12-28T16:03:06.369Z,99035.52
2022-12-28T16:08:08.346Z,99034.55
2022-12-28T16:13:10.665Z,99024.44
2022-12-28T16:18:12.595Z,99028.75
2022-12-28T16:23:14.450Z,99021.63
2022-12-28T16:28:16.317Z,99015.06
2022-12-28T16:33:18.868Z,99014.66
2022-12-28T16:38:23.142Z,99014.28
2022-12-28T16:43:25.426Z,99015.69
2022-12-28T16:48:27.583Z,99007.98
2022-12-28T16:53:30.297Z,99005.68
2022-12-28T16:58:32.796Z,99010.35
2022-12-28T17:03:35.350Z,99010.22
2022-12-28T17:08:37.425Z,99009.56
2022-12-28T17:13:40.498Z,99012.89
2022-12-28T17:18:42.436Z,99015.70
2022-12-28T17:23:44.472Z,99016.40
2022-12-28T17:28:46.705Z,99018.05
2022-12-28T17:33:53.623Z,99019.41
2022-12-28T17:38:55.610Z,99013.48
2022-12-28T17:43:59.496Z,99011.80
2022-12-28T17:49:02.364Z,99011.48
2022-12-28T17:54:04.306Z,99008.45
2022-12-28T17:59:06.598Z,99010.59
2022-12-28T18:04:09.347Z,99011.66
2022-12-28T18:09:11.382Z,99007.46
2022-12-28T18:14:14.825Z,99007.25
2022-12-28T18:19:16.725Z,99010.16
2022-12-28T18:24:20.841Z,99010.45
2022-12-28T18:29:22.907Z,99011.28
2022-12-28T18:34:25.013Z,99010.05
2022-12-28T18:39:26.824Z,99013.34
2022-12-28T18:44:29.205Z,99006.48
2022-12-28T18:49:31.161Z,99006.97
2022-12-28T18:54:33.673Z,99006.88
2022-12-28T18:59:35.634Z,99005.81
2022-12-28T19:04:37.712Z,99010.46
2022-12-28T19:09:39.670Z,99008.33
2022-12-28T19:14:41.663Z,99004.82
2022-12-28T19:19:43.568Z,99004.91
2022-12-28T19:24:45.599Z,98992.83
2022-12-28T19:29:50.544Z,98990.23
2022-12-28T19:34:53.506Z,98995.09
2022-12-28T19:39:57.911Z,98993.02
2022-12-28T19:45:04.854Z,98988.02
2022-12-28T19:50:10.132Z,98996.13
2022-12-28T19:55:12.103Z,98992.05
2022-12-28T20:00:14.700Z,98983.55
2022-12-28T20:05:18.137Z,98975.06
2022-12-28T20:10:21.375Z,98967.20
2022-12-28T20:15:24.648Z,98963.86
2022-12-28T20:20:27.584Z,98958.45
2022-12-28T20:25:32.460Z,98959.18
2022-12-28T20:30:34.354Z,98953.98
2022-12-28T20:35:36.116Z,98950.45
2022-12-28T20:40:38.138Z,98946.11
2022-12-28T20:45:40.127Z,98941.56
2022-12-28T20:50:42.409Z,98942.96
2022-12-28T20:55:45.229Z,98932.05
2022-12-28T21:00:47.911Z,98923.73
2022-12-28T21:05:53.127Z,98920.52
2022-12-28T21:10:55.168Z,98921.41
2022-12-28T21:15:57.954Z,98925.13
2022-12-28T21:21:01.206Z,98917.95
2022-12-28T21:26:05.393Z,98911.08
2022-12-28T21:31:07.471Z,98905.73
2022-12-28T21:36:20.349Z,98903.41
2022-12-28T21:41:41.435Z,98902.17
2022-12-28T21:46:45.261Z,98897.23
2022-12-28T21:51:47.233Z,98899.45
2022-12-28T21:56:53.197Z,98902.94
2022-12-28T22:02:13.931Z,98894.70
2022-12-28T22:07:18.432Z,98897.54
2022-12-28T22:12:39.643Z,98895.80
2022-12-28T22:17:42.962Z,98901.83
2022-12-28T22:22:44.849Z,98895.45
2022-12-28T22:27:46.874Z,98893.47
2022-12-28T22:32:48.722Z,98894.55
2022-12-28T22:37:50.618Z,98899.63
2022-12-28T22:42:52.831Z,98907.57
2022-12-28T22:47:59.267Z,98905.40
2022-12-28T22:53:01.102Z,98901.54
2022-12-28T22:58:03.007Z,98907.95
2022-12-28T23:03:06.723Z,98897.91
2022-12-28T23:08:08.664Z,98901.64
2022-12-28T23:13:10.537Z,98894.11
2022-12-28T23:18:31.083Z,98886.97
2022-12-28T23:23:51.298Z,98886.96
2022-12-28T23:28:53.246Z,98894.63
2022-12-28T23:33:55.116Z,98890.44
2022-12-28T23:38:56.975Z,98883.60
2022-12-28T23:43:58.833Z,98885.80
2022-12-28T23:49:00.720Z,98881.32
2022-12-28T23:54:02.671Z,98876.28
2022-12-28T23:59:05.487Z,98875.64
